createdAt,value
2017-08-27T00:00:07.627Z,21.77
2017-08-27T00:02:42.466Z,21.72
2017-08-27T00:05:17.278Z,21.69
2017-08-27T00:07:52.112Z,21.63
2017-08-27T00:10:26.862Z,21.69
2017-08-27T00:13:01.606Z,21.75
2017-08-27T00:15:36.329Z,21.82
2017-08-27T00:18:11.114Z,21.82
2017-08-27T00:20:45.885Z,21.81
2017-08-27T00:23:20.727Z,21.80
2017-08-27T00:25:55.509Z,21.76
2017-08-27T00:28:30.239Z,21.70
2017-08-27T00:31:04.996Z,21.57
2017-08-27T00:33:39.797Z,21.46
2017-08-27T00:36:14.331Z,21.39
2017-08-27T00:38:49.371Z,21.35
2017-08-27T00:41:24.108Z,21.34
2017-08-27T00:43:58.739Z,21.34
2017-08-27T00:46:33.383Z,21.24
2017-08-27T00:49:07.780Z,21.03
2017-08-27T00:51:42.756Z,20.88
2017-08-27T00:54:17.007Z,20.80
2017-08-27T00:56:51.601Z,20.70
2017-08-27T00:59:26.475Z,20.61
2017-08-27T01:02:01.259Z,20.47
2017-08-27T01:04:35.511Z,20.41
2017-08-27T01:07:10.012Z,20.37
2017-08-27T01:09:44.784Z,20.28
2017-08-27T01:12:19.464Z,20.17
2017-08-27T01:14:54.391Z,20.14
2017-08-27T01:17:29.184Z,20.16
2017-08-27T01:20:03.724Z,20.17
2017-08-27T01:22:38.191Z,20.14
2017-08-27T01:25:13.245Z,20.11
2017-08-27T01:27:48.304Z,20.08
2017-08-27T01:30:23.932Z,20.06
2017-08-27T01:32:58.560Z,20.05
2017-08-27T01:35:33.173Z,20.01
2017-08-27T01:38:07.934Z,20.01
2017-08-27T01:40:42.784Z,19.97
2017-08-27T01:43:17.490Z,19.92
2017-08-27T01:45:52.120Z,19.90
2017-08-27T01:48:26.818Z,19.86
2017-08-27T01:51:01.546Z,19.84
2017-08-27T01:53:37.855Z,19.79
2017-08-27T01:56:12.767Z,19.75
2017-08-27T01:58:47.820Z,19.68
2017-08-27T02:01:22.392Z,19.66
2017-08-27T02:03:57.124Z,19.59
2017-08-27T02:06:31.739Z,19.49
2017-08-27T02:09:06.404Z,19.38
2017-08-27T02:11:41.398Z,19.26
2017-08-27T02:14:16.819Z,19.15
2017-08-27T02:16:51.514Z,19.11
2017-08-27T02:19:26.253Z,19.16
2017-08-27T02:22:01.908Z,19.09
2017-08-27T02:24:36.606Z,19.05
2017-08-27T02:27:11.280Z,18.97
2017-08-27T02:29:46.016Z,18.85
2017-08-27T02:32:20.631Z,18.76
2017-08-27T02:34:55.334Z,18.73
2017-08-27T02:37:30.065Z,18.69
2017-08-27T02:40:04.771Z,18.69
2017-08-27T02:42:40.355Z,18.60
2017-08-27T02:45:15.974Z,18.55
2017-08-27T02:47:50.879Z,18.57
2017-08-27T02:50:25.564Z,18.48
2017-08-27T02:53:00.419Z,18.41
2017-08-27T02:55:35.096Z,18.34
2017-08-27T02:58:09.746Z,18.26
2017-08-27T03:00:44.546Z,18.18
2017-08-27T03:03:19.395Z,18.14
2017-08-27T03:05:54.155Z,18.12
2017-08-27T03:08:28.896Z,18.05
2017-08-27T03:11:03.558Z,18.03
2017-08-27T03:13:38.323Z,18.05
2017-08-27T03:16:12.990Z,18.02
2017-08-27T03:18:47.671Z,17.94
2017-08-27T03:21:22.499Z,17.86
2017-08-27T03:23:57.138Z,17.82
2017-08-27T03:26:31.834Z,17.81
2017-08-27T03:29:06.507Z,17.84
2017-08-27T03:31:41.172Z,17.92
2017-08-27T03:34:16.536Z,17.98
2017-08-27T03:36:51.600Z,18.02
2017-08-27T03:39:26.260Z,18.09
2017-08-27T03:42:00.931Z,18.08
2017-08-27T03:44:36.487Z,18.06
2017-08-27T03:47:11.143Z,18.07
2017-08-27T03:49:45.824Z,18.10
2017-08-27T03:52:20.548Z,18.04
2017-08-27T03:54:55.296Z,18.02
2017-08-27T03:57:30.066Z,17.98
2017-08-27T04:00:04.404Z,17.96
2017-08-27T04:02:39.436Z,17.92
2017-08-27T04:05:14.259Z,17.89
2017-08-27T04:07:48.940Z,17.85
2017-08-27T04:10:23.558Z,17.81
2017-08-27T04:12:58.088Z,17.79
2017-08-27T04:15:33.174Z,17.77
2017-08-27T04:18:07.576Z,17.78
2017-08-27T04:20:43.175Z,17.73
2017-08-27T04:23:17.958Z,17.69
2017-08-27T04:25:52.490Z,17.60
2017-08-27T04:28:27.167Z,17.47
2017-08-27T04:31:01.939Z,17.47
2017-08-27T04:33:37.465Z,17.48
2017-08-27T04:36:12.235Z,17.46
2017-08-27T04:38:47.007Z,17.48
2017-08-27T04:41:21.739Z,17.47
2017-08-27T04:43:56.568Z,17.44
2017-08-27T04:46:31.306Z,17.44
2017-08-27T04:49:06.076Z,17.46
2017-08-27T04:51:40.758Z,17.51
2017-08-27T04:54:15.843Z,17.52
2017-08-27T04:56:51.180Z,17.51
2017-08-27T04:59:25.768Z,17.55
2017-08-27T05:02:00.552Z,17.50
2017-08-27T05:04:35.234Z,17.44
2017-08-27T05:07:10.012Z,17.42
2017-08-27T05:09:44.769Z,17.38
2017-08-27T05:12:19.567Z,17.39
2017-08-27T05:14:54.479Z,17.41
2017-08-27T05:17:29.184Z,17.45
2017-08-27T05:20:03.815Z,17.41
2017-08-27T05:22:38.430Z,17.35
2017-08-27T05:25:12.966Z,17.37
2017-08-27T05:27:47.771Z,17.43
2017-08-27T05:30:22.603Z,17.41
2017-08-27T05:32:57.131Z,17.37
2017-08-27T05:35:31.846Z,17.30
2017-08-27T05:38:06.872Z,17.28
2017-08-27T05:40:42.239Z,17.46
2017-08-27T05:43:16.768Z,17.49
2017-08-27T05:45:51.695Z,17.61
2017-08-27T05:48:26.390Z,17.71
2017-08-27T05:51:01.260Z,17.76
2017-08-27T05:53:36.027Z,17.74
2017-08-27T05:56:10.624Z,17.54
2017-08-27T05:58:45.363Z,17.70
2017-08-27T06:01:20.043Z,17.91
2017-08-27T06:03:54.892Z,18.20
2017-08-27T06:06:29.647Z,18.22
2017-08-27T06:09:03.465Z,18.16
2017-08-27T06:11:38.680Z,18.25
2017-08-27T06:14:13.512Z,18.30
2017-08-27T06:16:48.229Z,18.42
2017-08-27T06:19:22.858Z,18.34
2017-08-27T06:21:57.614Z,18.46
2017-08-27T06:24:32.568Z,18.59
2017-08-27T06:27:07.135Z,18.45
2017-08-27T06:29:42.274Z,18.49
2017-08-27T06:32:16.711Z,18.48
2017-08-27T06:34:52.371Z,18.56
2017-08-27T06:37:27.044Z,18.67
2017-08-27T06:40:02.677Z,18.80
2017-08-27T06:42:37.362Z,19.10
2017-08-27T06:45:12.134Z,19.33
2017-08-27T06:47:46.903Z,19.09
2017-08-27T06:50:21.792Z,18.78
2017-08-27T06:52:56.683Z,18.85
2017-08-27T06:55:31.407Z,19.13
2017-08-27T06:58:06.196Z,19.19
2017-08-27T07:00:40.896Z,19.26
2017-08-27T07:03:15.680Z,19.47
2017-08-27T07:05:50.599Z,19.19
2017-08-27T07:08:25.379Z,19.05
2017-08-27T07:11:00.106Z,19.08
2017-08-27T07:13:35.696Z,19.26
2017-08-27T07:16:10.499Z,19.51
2017-08-27T07:18:45.293Z,19.73
2017-08-27T07:21:19.897Z,19.94
2017-08-27T07:23:55.375Z,20.17
2017-08-27T07:26:30.006Z,20.34
2017-08-27T07:29:04.845Z,20.48
2017-08-27T07:31:40.576Z,20.80
2017-08-27T07:34:15.226Z,20.91
2017-08-27T07:36:50.307Z,21.17
2017-08-27T07:39:24.908Z,21.10
2017-08-27T07:41:59.640Z,20.98
2017-08-27T07:44:34.264Z,21.12
2017-08-27T07:47:09.023Z,21.14
2017-08-27T07:49:43.686Z,20.92
2017-08-27T07:52:18.563Z,21.03
2017-08-27T07:54:53.376Z,21.52
2017-08-27T07:57:28.128Z,21.96
2017-08-27T08:00:03.327Z,22.26
2017-08-27T08:02:38.783Z,22.36
2017-08-27T08:05:13.719Z,22.33
2017-08-27T08:07:48.334Z,22.50
2017-08-27T08:10:23.240Z,22.63
2017-08-27T08:12:57.879Z,22.66
2017-08-27T08:15:32.572Z,22.93
2017-08-27T08:18:07.339Z,22.96
2017-08-27T08:20:42.055Z,22.89
2017-08-27T08:23:16.776Z,23.11
2017-08-27T08:25:51.287Z,23.00
2017-08-27T08:28:26.948Z,22.98
2017-08-27T08:31:01.905Z,22.97
2017-08-27T08:33:36.752Z,22.78
2017-08-27T08:36:11.571Z,22.61
2017-08-27T08:38:46.350Z,22.74
2017-08-27T08:41:20.940Z,22.85
2017-08-27T08:43:55.804Z,22.80
2017-08-27T08:46:30.511Z,23.10
2017-08-27T08:49:05.352Z,23.31
2017-08-27T08:51:40.199Z,23.49
2017-08-27T08:54:14.622Z,23.54
2017-08-27T08:56:49.275Z,23.42
2017-08-27T08:59:23.987Z,23.52
2017-08-27T09:01:58.688Z,23.31
2017-08-27T09:04:34.220Z,23.24
2017-08-27T09:07:09.006Z,23.76
2017-08-27T09:09:43.792Z,24.19
2017-08-27T09:12:18.476Z,24.50
2017-08-27T09:14:53.891Z,24.11
2017-08-27T09:17:28.441Z,23.73
2017-08-27T09:20:03.130Z,23.98
2017-08-27T09:22:37.694Z,24.32
2017-08-27T09:25:12.283Z,24.30
2017-08-27T09:27:47.872Z,24.38
2017-08-27T09:30:22.223Z,24.59
2017-08-27T09:32:56.922Z,24.85
2017-08-27T09:35:32.595Z,24.97
2017-08-27T09:38:07.190Z,25.19
2017-08-27T09:40:42.859Z,25.65
2017-08-27T09:43:17.669Z,25.53
2017-08-27T09:45:52.286Z,25.19
2017-08-27T09:48:27.867Z,24.64
2017-08-27T09:51:02.507Z,24.47
2017-08-27T09:53:37.206Z,24.54
2017-08-27T09:56:11.810Z,24.90
2017-08-27T09:58:46.586Z,25.32
2017-08-27T10:01:21.220Z,25.63
2017-08-27T10:03:56.005Z,25.79
2017-08-27T10:06:31.635Z,25.59
2017-08-27T10:09:06.350Z,25.63
2017-08-27T10:11:40.908Z,26.04
2017-08-27T10:14:15.612Z,25.87
2017-08-27T10:16:50.208Z,25.27
2017-08-27T10:19:24.914Z,25.01
2017-08-27T10:21:59.543Z,25.03
2017-08-27T10:24:34.156Z,24.70
2017-08-27T10:27:08.907Z,24.54
2017-08-27T10:29:43.583Z,24.99
2017-08-27T10:32:19.498Z,25.26
2017-08-27T10:34:54.148Z,25.70
2017-08-27T10:37:28.852Z,25.80
2017-08-27T10:40:03.059Z,25.67
2017-08-27T10:42:38.036Z,25.66
2017-08-27T10:45:12.699Z,25.30
2017-08-27T10:47:47.340Z,24.99
2017-08-27T10:50:22.840Z,25.65
2017-08-27T10:52:57.646Z,25.85
2017-08-27T10:55:32.247Z,25.85
2017-08-27T10:58:06.919Z,26.16
2017-08-27T11:00:41.154Z,25.45
2017-08-27T11:03:16.156Z,25.12
2017-08-27T11:05:50.855Z,25.35
2017-08-27T11:08:25.587Z,25.95
2017-08-27T11:11:00.391Z,26.26
2017-08-27T11:13:35.123Z,25.83
2017-08-27T11:16:09.647Z,25.54
2017-08-27T11:18:45.496Z,25.69
2017-08-27T11:21:20.132Z,25.31
2017-08-27T11:23:54.826Z,25.04
2017-08-27T11:26:29.592Z,24.93
2017-08-27T11:29:04.135Z,25.25
2017-08-27T11:31:38.843Z,25.13
2017-08-27T11:34:13.736Z,25.76
2017-08-27T11:36:48.984Z,26.17
2017-08-27T11:39:24.601Z,26.22
2017-08-27T11:41:59.202Z,26.25
2017-08-27T11:44:33.967Z,26.65
2017-08-27T11:47:08.711Z,26.65
2017-08-27T11:49:43.530Z,26.54
2017-08-27T11:52:18.860Z,26.90
2017-08-27T11:54:53.655Z,27.33
2017-08-27T11:57:28.477Z,27.41
2017-08-27T12:00:03.048Z,27.67
2017-08-27T12:02:37.862Z,28.00
2017-08-27T12:05:12.560Z,28.32
2017-08-27T12:07:48.150Z,28.20
2017-08-27T12:10:24.793Z,28.15
2017-08-27T12:12:59.394Z,28.39
2017-08-27T12:15:33.840Z,27.97
2017-08-27T12:18:09.103Z,27.89
2017-08-27T12:20:43.668Z,28.35
2017-08-27T12:23:18.438Z,28.73
2017-08-27T12:25:53.272Z,28.74
2017-08-27T12:28:27.988Z,29.02
2017-08-27T12:31:02.728Z,28.59
2017-08-27T12:33:37.500Z,27.90
2017-08-27T12:36:12.179Z,28.38
2017-08-27T12:38:46.796Z,28.87
2017-08-27T12:41:21.457Z,29.10
2017-08-27T12:43:56.156Z,28.42
2017-08-27T12:46:30.903Z,28.55
2017-08-27T12:49:05.517Z,28.20
2017-08-27T12:51:39.912Z,27.79
2017-08-27T12:54:14.964Z,27.45
2017-08-27T12:56:50.122Z,27.32
2017-08-27T12:59:25.353Z,27.09
2017-08-27T13:01:59.988Z,27.03
2017-08-27T13:04:35.530Z,27.31
2017-08-27T13:07:10.399Z,27.28
2017-08-27T13:09:45.285Z,27.44
2017-08-27T13:12:19.912Z,27.44
2017-08-27T13:14:54.744Z,27.94
2017-08-27T13:17:29.491Z,27.91
2017-08-27T13:20:04.199Z,27.87
2017-08-27T13:22:39.028Z,28.23
2017-08-27T13:25:14.059Z,28.52
2017-08-27T13:27:48.619Z,28.40
2017-08-27T13:30:22.882Z,28.35
2017-08-27T13:32:57.708Z,28.46
2017-08-27T13:35:32.419Z,28.71
2017-08-27T13:38:08.174Z,28.99
2017-08-27T13:40:43.884Z,29.05
2017-08-27T13:43:18.512Z,29.00
2017-08-27T13:45:53.116Z,28.33
2017-08-27T13:48:27.764Z,27.78
2017-08-27T13:51:02.514Z,27.88
2017-08-27T13:53:37.238Z,27.71
2017-08-27T13:56:12.151Z,28.05
2017-08-27T13:58:47.779Z,28.23
2017-08-27T14:01:23.227Z,28.06
2017-08-27T14:03:57.799Z,28.37
2017-08-27T14:06:32.515Z,28.49
2017-08-27T14:09:07.256Z,28.07
2017-08-27T14:11:42.980Z,27.65
2017-08-27T14:14:17.683Z,27.57
2017-08-27T14:16:52.436Z,27.98
2017-08-27T14:19:27.126Z,28.51
2017-08-27T14:22:01.791Z,28.98
2017-08-27T14:24:36.386Z,29.34
2017-08-27T14:27:11.107Z,29.72
2017-08-27T14:29:45.811Z,29.31
2017-08-27T14:32:20.436Z,28.69
2017-08-27T14:34:55.232Z,28.31
2017-08-27T14:37:29.642Z,27.87
2017-08-27T14:40:04.354Z,27.75
2017-08-27T14:42:39.128Z,27.55
2017-08-27T14:45:13.950Z,27.43
2017-08-27T14:47:48.673Z,27.66
2017-08-27T14:50:23.382Z,27.75
2017-08-27T14:52:58.082Z,27.80
2017-08-27T14:55:32.935Z,27.70
2017-08-27T14:58:07.799Z,28.00
2017-08-27T15:00:43.456Z,28.14
2017-08-27T15:03:19.103Z,27.70
2017-08-27T15:05:53.795Z,27.24
2017-08-27T15:08:28.459Z,27.30
2017-08-27T15:11:04.180Z,27.22
2017-08-27T15:13:38.820Z,26.97
2017-08-27T15:16:13.462Z,26.95
2017-08-27T15:18:48.295Z,26.81
2017-08-27T15:21:23.220Z,26.84
2017-08-27T15:23:57.768Z,26.67
2017-08-27T15:26:32.416Z,26.64
2017-08-27T15:29:07.232Z,26.66
2017-08-27T15:31:41.863Z,26.63
2017-08-27T15:34:16.527Z,26.55
2017-08-27T15:36:51.172Z,26.69
2017-08-27T15:39:25.879Z,26.88
2017-08-27T15:42:00.728Z,26.92
2017-08-27T15:44:35.502Z,27.00
2017-08-27T15:47:10.414Z,26.88
2017-08-27T15:49:46.038Z,26.81
2017-08-27T15:52:21.779Z,26.74
2017-08-27T15:54:56.551Z,26.55
2017-08-27T15:57:31.406Z,26.44
2017-08-27T16:00:06.059Z,26.37
2017-08-27T16:02:40.800Z,26.39
2017-08-27T16:05:15.443Z,26.24
2017-08-27T16:07:49.989Z,26.19
2017-08-27T16:10:24.895Z,26.18
2017-08-27T16:12:59.628Z,26.20
2017-08-27T16:15:33.963Z,26.18
2017-08-27T16:18:09.263Z,26.31
2017-08-27T16:20:44.193Z,26.42
2017-08-27T16:23:18.668Z,26.48
2017-08-27T16:25:54.323Z,26.61
2017-08-27T16:28:29.044Z,26.74
2017-08-27T16:31:03.748Z,26.74
2017-08-27T16:33:38.320Z,26.45
2017-08-27T16:36:13.024Z,26.30
2017-08-27T16:38:47.631Z,26.27
2017-08-27T16:41:22.108Z,26.29
2017-08-27T16:43:56.709Z,26.19
2017-08-27T16:46:31.288Z,26.13
2017-08-27T16:49:05.899Z,26.13
2017-08-27T16:51:40.476Z,25.86
2017-08-27T16:54:15.399Z,25.68
2017-08-27T16:56:50.124Z,25.62
2017-08-27T16:59:24.843Z,25.48
2017-08-27T17:01:59.594Z,25.42
2017-08-27T17:04:34.459Z,25.52
2017-08-27T17:07:08.839Z,25.59
2017-08-27T17:09:43.280Z,25.48
2017-08-27T17:12:17.870Z,25.40
2017-08-27T17:14:52.486Z,25.31
2017-08-27T17:17:26.916Z,25.29
2017-08-27T17:20:01.483Z,25.26
2017-08-27T17:22:36.092Z,25.20
2017-08-27T17:25:10.643Z,25.17
2017-08-27T17:27:45.224Z,25.08
2017-08-27T17:30:19.876Z,25.04
2017-08-27T17:32:54.406Z,25.06
2017-08-27T17:35:28.923Z,25.10
2017-08-27T17:38:04.361Z,25.11
2017-08-27T17:40:39.064Z,25.05
2017-08-27T17:43:13.713Z,25.02
2017-08-27T17:45:48.268Z,25.00
2017-08-27T17:48:22.824Z,24.87
2017-08-27T17:50:57.351Z,24.82
2017-08-27T17:53:31.807Z,24.74
2017-08-27T17:56:06.503Z,24.67
2017-08-27T17:58:41.110Z,24.63
2017-08-27T18:01:15.619Z,24.57
2017-08-27T18:03:50.123Z,24.51
2017-08-27T18:06:24.750Z,24.40
2017-08-27T18:08:59.195Z,24.32
2017-08-27T18:11:33.687Z,24.21
2017-08-27T18:14:08.295Z,24.09
2017-08-27T18:16:43.160Z,23.98
2017-08-27T18:19:17.869Z,23.92
2017-08-27T18:21:52.507Z,23.84
2017-08-27T18:24:27.855Z,23.74
2017-08-27T18:27:02.547Z,23.66
2017-08-27T18:29:37.270Z,23.60
2017-08-27T18:32:11.931Z,23.49
2017-08-27T18:34:46.608Z,23.37
2017-08-27T18:37:21.264Z,23.30
2017-08-27T18:39:55.902Z,23.22
2017-08-27T18:42:30.221Z,23.11
2017-08-27T18:45:04.948Z,23.01
2017-08-27T18:47:39.661Z,22.86
2017-08-27T18:50:14.212Z,22.75
2017-08-27T18:52:48.903Z,22.71
2017-08-27T18:55:23.570Z,22.60
2017-08-27T18:57:58.182Z,22.49
2017-08-27T19:00:32.921Z,22.37
2017-08-27T19:03:07.427Z,22.15
2017-08-27T19:05:42.343Z,22.02
2017-08-27T19:08:17.271Z,21.90
2017-08-27T19:10:52.004Z,21.76
2017-08-27T19:13:26.727Z,21.72
2017-08-27T19:16:01.360Z,21.59
2017-08-27T19:18:36.028Z,21.46
2017-08-27T19:21:10.559Z,21.34
2017-08-27T19:23:45.542Z,21.24
2017-08-27T19:26:20.284Z,21.13
2017-08-27T19:28:54.889Z,21.05
2017-08-27T19:31:30.006Z,20.99
2017-08-27T19:34:04.507Z,20.90
2017-08-27T19:36:39.260Z,20.83
2017-08-27T19:39:14.010Z,20.76
2017-08-27T19:41:48.752Z,20.65
2017-08-27T19:44:23.692Z,20.62
2017-08-27T19:46:58.336Z,20.58
2017-08-27T19:49:33.180Z,20.52
2017-08-27T19:52:07.887Z,20.46
2017-08-27T19:54:42.715Z,20.40
2017-08-27T19:57:17.348Z,20.39
2017-08-27T19:59:52.197Z,20.40
2017-08-27T20:02:26.796Z,20.35
2017-08-27T20:05:01.446Z,20.29
2017-08-27T20:07:36.320Z,20.20
2017-08-27T20:10:11.083Z,20.12
2017-08-27T20:12:45.820Z,20.08
2017-08-27T20:15:20.491Z,20.02
2017-08-27T20:17:55.072Z,19.94
2017-08-27T20:20:29.644Z,19.92
2017-08-27T20:23:04.540Z,19.82
2017-08-27T20:25:39.212Z,19.78
2017-08-27T20:28:14.924Z,19.71
2017-08-27T20:30:49.164Z,19.57
2017-08-27T20:33:24.180Z,19.46
2017-08-27T20:35:58.900Z,19.42
2017-08-27T20:38:33.631Z,19.30
2017-08-27T20:41:08.504Z,19.23
2017-08-27T20:43:43.255Z,19.17
2017-08-27T20:46:18.020Z,19.10
2017-08-27T20:48:52.691Z,18.97
2017-08-27T20:51:27.295Z,18.92
2017-08-27T20:54:01.988Z,18.91
2017-08-27T20:56:36.600Z,18.89
2017-08-27T20:59:12.204Z,18.84
2017-08-27T21:01:46.902Z,18.86
2017-08-27T21:04:21.569Z,18.74
2017-08-27T21:06:56.260Z,18.68
2017-08-27T21:09:31.003Z,18.57
2017-08-27T21:12:05.745Z,18.49
2017-08-27T21:14:42.396Z,18.46
2017-08-27T21:17:16.831Z,18.42
2017-08-27T21:19:51.687Z,18.41
2017-08-27T21:22:26.427Z,18.36
2017-08-27T21:25:01.065Z,18.24
2017-08-27T21:27:35.816Z,18.26
2017-08-27T21:30:10.468Z,18.51
2017-08-27T21:32:45.040Z,19.11
2017-08-27T21:35:19.788Z,19.55
2017-08-27T21:37:54.556Z,19.81
2017-08-27T21:40:30.257Z,19.92
2017-08-27T21:43:04.782Z,20.01
2017-08-27T21:45:39.551Z,20.09
2017-08-27T21:48:14.254Z,19.95
2017-08-27T21:50:49.002Z,19.54
2017-08-27T21:53:23.713Z,19.13
2017-08-27T21:55:59.246Z,18.80
2017-08-27T21:58:33.888Z,18.62
2017-08-27T22:01:08.764Z,18.47
2017-08-27T22:03:43.354Z,18.36
2017-08-27T22:06:18.746Z,18.25
2017-08-27T22:08:53.339Z,18.04
2017-08-27T22:11:27.990Z,17.93
2017-08-27T22:14:02.727Z,17.82
2017-08-27T22:16:38.371Z,17.85
2017-08-27T22:19:13.953Z,17.71
2017-08-27T22:21:48.552Z,17.58
2017-08-27T22:24:23.307Z,17.43
2017-08-27T22:26:59.056Z,17.39
2017-08-27T22:29:33.667Z,17.37
2017-08-27T22:32:08.317Z,17.37
2017-08-27T22:34:43.075Z,17.36
2017-08-27T22:37:17.732Z,17.27
2017-08-27T22:39:52.422Z,17.17
2017-08-27T22:42:26.837Z,17.08
2017-08-27T22:45:02.382Z,17.02
2017-08-27T22:47:38.932Z,16.93
2017-08-27T22:50:13.638Z,16.87
2017-08-27T22:52:49.120Z,16.88
2017-08-27T22:55:23.842Z,16.84
2017-08-27T22:57:58.478Z,16.77
2017-08-27T23:00:33.052Z,16.67
2017-08-27T23:03:07.567Z,16.65
2017-08-27T23:05:42.491Z,16.63
2017-08-27T23:08:17.320Z,16.56
2017-08-27T23:10:52.123Z,16.52
2017-08-27T23:13:26.748Z,16.52
2017-08-27T23:16:02.283Z,16.50
2017-08-27T23:18:37.102Z,16.45
2017-08-27T23:21:11.715Z,16.38
2017-08-27T23:23:46.236Z,16.32
2017-08-27T23:26:20.798Z,16.29
2017-08-27T23:28:55.793Z,16.23
2017-08-27T23:31:30.308Z,16.17
2017-08-27T23:34:04.803Z,16.18
2017-08-27T23:36:39.600Z,16.17
2017-08-27T23:39:14.231Z,16.14
2017-08-27T23:41:48.859Z,16.14
2017-08-27T23:44:23.488Z,16.08
2017-08-27T23:46:58.122Z,16.04
2017-08-27T23:49:32.944Z,15.96
2017-08-27T23:52:08.447Z,15.90
2017-08-27T23:54:43.130Z,15.88
2017-08-27T23:57:17.850Z,15.90
2017-08-27T23:59:52.683Z,15.89
